CYGP

Gaspé (Michel-Pouliot) Airport

Code ICAO CYGP
Code IATA YGP
Nom Gaspé (Michel-Pouliot) Airport
Emplacement Gaspé, Quebec, CA
Élévation 112 pieds / 34.1 mètres
Latitude 48.77500000
Longitude -64.48166667
METAR CYGP 251620Z VRB04KT 15SM BKN020 BKN035 13/08 A2973 RMK SC7SC1 SC TR CU ASOCTD SLP072
Informations extras Afficher cartes
Piste Longueur Largeur Surface Élévation
10 5488 ft 150 ft ASP 112 ft
28 5488 ft 150 ft ASP 89 ft

Routes obligatoires

Gaspé (Michel-Pouliot) Airport

Direction Destination Niveau Remarque Type Route
ARR FR W H&L RNAV FLEUR VODIX OMPOG YGP
DEP TO W H RNAV MIVAX